Time;durP1;ratioP1;P1;durP2;ratioP2;P2;SDS_P1;SDS_P2;PMS_P1;PMS_P2;Temp;Humidity;BMP_temperature;BMP_pressure;BME280_temperature;BME280_humidity;BME280_pressure;Samples;Min_cycle;Max_cycle;Signal;HPM_P1;HPM_P2
2023/09/14 00:01:01;;;;;;;40.55;38.03;;;11.40;99.90;;;;;;6246574;23;20008;-84
2023/09/14 00:03:27;;;;;;;37.85;35.17;;;11.50;99.90;;;;;;6246735;23;20048;-84
2023/09/14 00:05:53;;;;;;;34.95;32.35;;;11.40;99.90;;;;;;6221504;23;20063;-84
2023/09/14 00:08:20;;;;;;;32.58;30.33;;;11.50;99.90;;;;;;6247142;23;20034;-84
2023/09/14 00:10:51;;;;;;;34.20;31.77;;;11.50;99.90;;;;;;6246452;23;20039;-84
2023/09/14 00:13:17;;;;;;;37.47;35.13;;;11.40;99.90;;;;;;6274469;22;20050;-83
2023/09/14 00:15:46;;;;;;;34.30;31.70;;;11.00;99.90;;;;;;6223886;23;20012;-83
2023/09/14 00:18:14;;;;;;;39.08;36.42;;;11.40;99.90;;;;;;6223511;23;20080;-84
2023/09/14 00:20:40;;;;;;;39.83;36.92;;;11.40;99.90;;;;;;6224641;23;20016;-84
2023/09/14 00:23:08;;;;;;;29.10;26.88;;;11.40;99.90;;;;;;6223778;23;20022;-85
2023/09/14 00:25:43;;;;;;;41.08;37.65;;;11.40;99.90;;;;;;6250326;23;20379;-84
2023/09/14 00:28:11;;;;;;;39.42;36.83;;;11.40;99.90;;;;;;6224177;23;20012;-84
2023/09/14 00:30:40;;;;;;;37.50;34.88;;;11.90;99.90;;;;;;6274656;22;20447;-83
2023/09/14 00:33:05;;;;;;;35.90;33.35;;;10.90;99.90;;;;;;6248933;23;20015;-84
2023/09/14 00:35:31;;;;;;;33.50;31.27;;;11.40;99.90;;;;;;6249029;23;20199;-82
2023/09/14 00:38:01;;;;;;;32.72;30.33;;;11.50;99.90;;;;;;6223441;23;20339;-84
2023/09/14 00:40:27;;;;;;;33.30;31.13;;;11.50;99.90;;;;;;6249045;22;20176;-84
2023/09/14 00:42:53;;;;;;;31.70;29.40;;;11.50;99.90;;;;;;6274510;22;20022;-84
2023/09/14 00:45:22;;;;;;;31.23;28.90;;;11.50;99.90;;;;;;6224479;23;20051;-84
2023/09/14 00:47:54;;;;;;;31.25;29.05;;;12.00;99.90;;;;;;6248585;23;20016;-84
2023/09/14 00:50:21;;;;;;;30.88;28.75;;;12.00;99.90;;;;;;6249263;23;20206;-84
2023/09/14 00:53:06;;;;;;;36.10;33.47;;;11.50;99.90;;;;;;6223615;23;20016;-84
2023/09/14 00:55:33;;;;;;;32.25;29.98;;;11.50;99.90;;;;;;6249752;23;20018;-84
2023/09/14 00:58:02;;;;;;;32.05;29.65;;;11.50;99.90;;;;;;6249557;23;20087;-84
2023/09/14 01:00:29;;;;;;;33.72;31.25;;;11.50;99.90;;;;;;6224203;23;20008;-83
2023/09/14 01:02:56;;;;;;;32.63;30.20;;;11.90;99.90;;;;;;6249385;23;20020;-84
2023/09/14 01:05:27;;;;;;;37.13;34.17;;;11.50;99.90;;;;;;6223513;23;20016;-84
2023/09/14 01:07:52;;;;;;;32.58;30.25;;;11.50;99.90;;;;;;6248619;23;20070;-84
2023/09/14 01:10:19;;;;;;;33.53;30.95;;;11.50;99.90;;;;;;6223543;23;20440;-84
2023/09/14 01:12:51;;;;;;;35.53;32.72;;;11.70;99.90;;;;;;6223551;23;20008;-84
2023/09/14 01:15:26;;;;;;;29.13;27.02;;;12.30;99.90;;;;;;6248358;23;20012;-84
2023/09/14 01:18:13;;;;;;;29.73;27.63;;;11.60;99.90;;;;;;6248893;23;20008;-84
2023/09/14 01:21:00;;;;;;;31.80;29.52;;;11.60;99.90;;;;;;6249011;23;20372;-84
2023/09/14 01:23:48;;;;;;;29.48;27.00;;;11.70;99.90;;;;;;6248790;23;20039;-84
2023/09/14 01:26:21;;;;;;;36.17;33.97;;;11.60;99.90;;;;;;6250500;23;20382;-84
2023/09/14 01:28:47;;;;;;;28.42;26.10;;;11.60;99.90;;;;;;6274153;22;20008;-84
2023/09/14 01:31:13;;;;;;;33.45;31.05;;;12.20;99.90;;;;;;6273907;22;20008;-83
2023/09/14 01:33:39;;;;;;;32.00;29.95;;;11.70;99.90;;;;;;6248100;23;20026;-84
2023/09/14 01:36:32;;;;;;;31.88;29.58;;;11.80;99.90;;;;;;6248714;23;20008;-84
2023/09/14 01:39:04;;;;;;;36.72;34.22;;;11.60;99.90;;;;;;6274323;22;20056;-84
2023/09/14 01:41:32;;;;;;;33.57;31.27;;;11.60;99.90;;;;;;6274712;22;20020;-84
2023/09/14 01:44:02;;;;;;;30.98;28.65;;;11.60;99.90;;;;;;6221944;23;20239;-84
2023/09/14 01:46:28;;;;;;;28.02;25.63;;;11.50;99.90;;;;;;6222980;23;20025;-84
2023/09/14 01:48:54;;;;;;;25.67;23.70;;;11.60;99.90;;;;;;6247713;23;20051;-84
2023/09/14 01:51:20;;;;;;;27.52;25.60;;;11.20;99.90;;;;;;6223206;23;20016;-84
2023/09/14 01:53:48;;;;;;;29.60;27.20;;;11.60;99.90;;;;;;6249214;23;20069;-84
2023/09/14 01:56:14;;;;;;;27.48;25.10;;;11.60;99.90;;;;;;6248119;23;20367;-83
2023/09/14 01:58:40;;;;;;;27.63;25.55;;;11.60;99.90;;;;;;6223334;23;20020;-83
2023/09/14 02:01:06;;;;;;;30.98;28.63;;;11.70;99.90;;;;;;6274964;22;20012;-84
2023/09/14 02:03:32;;;;;;;29.73;27.58;;;11.60;99.90;;;;;;6223229;23;20012;-83
2023/09/14 02:06:01;;;;;;;27.27;25.45;;;11.50;99.90;;;;;;6248445;23;20016;-84
2023/09/14 02:08:34;;;;;;;34.15;31.48;;;11.90;99.90;;;;;;6224251;23;20026;-84
2023/09/14 02:11:00;;;;;;;27.73;25.42;;;11.40;99.90;;;;;;6247733;23;20012;-84
2023/09/14 02:13:26;;;;;;;33.72;31.50;;;11.60;99.90;;;;;;6222711;23;20019;-84
2023/09/14 02:15:52;;;;;;;26.48;24.20;;;11.40;99.90;;;;;;6223177;23;20090;-84
2023/09/14 02:18:17;;;;;;;30.42;28.02;;;11.30;99.90;;;;;;6247823;23;20335;-84
2023/09/14 02:20:44;;;;;;;37.72;34.92;;;11.20;99.90;;;;;;6249000;23;20435;-84
2023/09/14 02:23:10;;;;;;;38.08;35.50;;;11.30;99.90;;;;;;6224141;23;20018;-84
2023/09/14 02:25:36;;;;;;;30.63;28.42;;;11.30;99.90;;;;;;6222891;23;20347;-84
2023/09/14 02:28:03;;;;;;;34.42;32.25;;;11.20;99.90;;;;;;6274212;22;20022;-84
2023/09/14 02:30:29;;;;;;;39.38;37.03;;;11.20;99.90;;;;;;6248316;23;20008;-84
2023/09/14 02:32:54;;;;;;;30.00;27.95;;;11.20;99.90;;;;;;6275148;22;20015;-84
2023/09/14 02:35:20;;;;;;;34.00;31.55;;;11.10;99.90;;;;;;6222758;23;20020;-84
2023/09/14 02:37:46;;;;;;;45.90;42.88;;;11.00;99.90;;;;;;6223113;23;20019;-83
2023/09/14 02:40:12;;;;;;;39.63;36.90;;;10.70;99.90;;;;;;6248147;23;20008;-84
2023/09/14 02:42:38;;;;;;;45.92;43.15;;;11.00;99.90;;;;;;6274346;22;20020;-85
2023/09/14 02:45:07;;;;;;;39.83;37.10;;;10.90;99.90;;;;;;6274282;22;20451;-84
2023/09/14 02:47:33;;;;;;;39.10;36.08;;;10.90;99.90;;;;;;6223729;23;20012;-85
2023/09/14 02:50:05;;;;;;;42.88;40.13;;;11.20;99.90;;;;;;6223232;23;20324;-84
2023/09/14 02:52:31;;;;;;;46.28;43.40;;;10.80;99.90;;;;;;6248979;23;20019;-84
2023/09/14 02:54:59;;;;;;;37.08;34.63;;;11.20;99.90;;;;;;6222663;23;20012;-84
2023/09/14 02:57:28;;;;;;;41.75;38.92;;;10.70;99.90;;;;;;6246846;23;20438;-84
2023/09/14 02:59:54;;;;;;;42.42;39.67;;;10.70;99.90;;;;;;6246478;23;20012;-84
2023/09/14 03:02:21;;;;;;;44.53;41.60;;;10.60;99.90;;;;;;6246221;23;20042;-84
2023/09/14 03:04:47;;;;;;;50.33;47.00;;;10.10;99.90;;;;;;6221622;23;20048;-84
2023/09/14 03:07:14;;;;;;;47.55;44.25;;;10.50;99.90;;;;;;6222553;23;20042;-84
2023/09/14 03:09:42;;;;;;;47.35;44.00;;;10.40;99.90;;;;;;6222577;23;20332;-83
2023/09/14 03:12:08;;;;;;;46.15;43.15;;;10.10;99.90;;;;;;6221223;23;20070;-84
2023/09/14 03:14:36;;;;;;;54.90;51.70;;;10.30;99.90;;;;;;6221829;23;20013;-84
2023/09/14 03:17:05;;;;;;;47.80;44.75;;;9.80;99.90;;;;;;6247121;23;20027;-84
2023/09/14 03:19:31;;;;;;;59.40;56.05;;;10.90;99.90;;;;;;6247171;23;20044;-84
2023/09/14 03:21:57;;;;;;;54.42;51.08;;;10.10;99.90;;;;;;6272633;22;20030;-84
2023/09/14 03:24:26;;;;;;;57.50;53.95;;;10.10;99.90;;;;;;6222011;23;20016;-83
2023/09/14 03:26:52;;;;;;;56.60;53.20;;;10.00;99.90;;;;;;6222579;23;20086;-84
2023/09/14 03:29:17;;;;;;;52.15;49.13;;;10.60;99.90;;;;;;6246519;23;20050;-84
2023/09/14 03:31:43;;;;;;;56.72;53.35;;;9.80;99.90;;;;;;6221530;23;20025;-84
2023/09/14 03:34:09;;;;;;;59.42;55.67;;;9.90;99.90;;;;;;6246212;23;20081;-84
2023/09/14 03:36:36;;;;;;;57.95;54.45;;;9.80;99.90;;;;;;6246782;23;20069;-84
2023/09/14 03:39:02;;;;;;;68.80;64.72;;;9.80;99.90;;;;;;6220405;23;20016;-83
2023/09/14 03:41:31;;;;;;;59.95;56.35;;;9.70;99.90;;;;;;6220215;23;20058;-83
2023/09/14 03:43:57;;;;;;;58.28;54.85;;;10.20;99.90;;;;;;6220033;23;20023;-84
2023/09/14 03:46:23;;;;;;;64.03;59.97;;;10.40;99.90;;;;;;6247362;23;20012;-83
2023/09/14 03:48:48;;;;;;;73.38;68.60;;;9.60;99.90;;;;;;6222687;23;20050;-83
2023/09/14 03:51:14;;;;;;;63.70;59.88;;;9.60;99.90;;;;;;6222718;23;20023;-83
2023/09/14 03:53:41;;;;;;;67.22;63.17;;;9.60;99.90;;;;;;6248114;23;20319;-84
2023/09/14 03:56:07;;;;;;;62.33;58.38;;;9.60;99.90;;;;;;6247213;23;20044;-84
2023/09/14 03:58:36;;;;;;;61.45;57.70;;;9.50;99.90;;;;;;6226073;23;20012;-83
2023/09/14 04:01:03;;;;;;;64.28;60.33;;;9.20;99.90;;;;;;6223390;23;20016;-83
2023/09/14 04:03:36;;;;;;;57.38;53.60;;;9.50;99.90;;;;;;6246396;23;20060;-84
2023/09/14 04:06:02;;;;;;;53.80;50.42;;;9.50;99.90;;;;;;6222117;23;20342;-84
2023/09/14 04:08:31;;;;;;;70.95;66.93;;;9.50;99.90;;;;;;6247626;23;20382;-85
2023/09/14 04:11:00;;;;;;;68.03;63.45;;;10.40;99.90;;;;;;6247292;23;20086;-84
2023/09/14 04:13:32;;;;;;;57.00;53.15;;;9.40;99.90;;;;;;6221075;23;20012;-83
2023/09/14 04:15:59;;;;;;;65.68;61.65;;;9.40;99.90;;;;;;6246279;23;20017;-85
2023/09/14 04:18:25;;;;;;;48.38;45.03;;;9.90;99.90;;;;;;6247722;23;20019;-86
2023/09/14 04:20:52;;;;;;;61.78;57.78;;;9.10;99.90;;;;;;6248270;23;20008;-86
2023/09/14 04:23:19;;;;;;;60.92;57.03;;;9.60;99.90;;;;;;6248747;23;20008;-86
2023/09/14 04:25:48;;;;;;;66.43;62.17;;;9.20;99.90;;;;;;6221900;23;20056;-86
2023/09/14 04:28:15;;;;;;;59.70;56.13;;;9.50;99.90;;;;;;6249332;23;20051;-86
2023/09/14 04:30:43;;;;;;;49.42;46.50;;;9.20;99.90;;;;;;6221575;23;20008;-86
2023/09/14 04:33:11;;;;;;;58.75;55.22;;;9.10;99.90;;;;;;6246284;23;20047;-86
2023/09/14 04:35:36;;;;;;;52.25;48.83;;;9.20;99.90;;;;;;6244933;23;20020;-85
2023/09/14 04:38:02;;;;;;;66.22;62.17;;;9.90;99.90;;;;;;6218263;23;20074;-85
2023/09/14 04:40:31;;;;;;;60.97;57.35;;;8.40;99.90;;;;;;6218150;23;20096;-84
2023/09/14 04:42:58;;;;;;;72.57;67.93;;;9.20;99.90;;;;;;6243451;23;20401;-84
2023/09/14 04:45:23;;;;;;;71.45;67.45;;;9.10;99.90;;;;;;6217890;23;20022;-85
2023/09/14 04:47:49;;;;;;;65.00;61.17;;;9.10;99.90;;;;;;6218102;23;20086;-85
2023/09/14 04:50:15;;;;;;;54.45;51.22;;;9.10;99.90;;;;;;6243429;23;20013;-83
2023/09/14 04:52:41;;;;;;;71.65;67.45;;;10.00;99.90;;;;;;6218189;23;20343;-83
2023/09/14 04:55:07;;;;;;;41.80;39.22;;;9.00;99.90;;;;;;6218385;23;20013;-83
2023/09/14 04:57:36;;;;;;;70.03;66.07;;;9.00;99.90;;;;;;6218500;23;20042;-84
2023/09/14 05:00:04;;;;;;;52.05;48.83;;;9.00;99.90;;;;;;6242846;23;20098;-83
2023/09/14 05:02:36;;;;;;;71.60;67.32;;;9.00;99.90;;;;;;6217054;23;20016;-83
2023/09/14 05:05:03;;;;;;;58.55;54.85;;;9.00;99.90;;;;;;6244167;23;20069;-83
2023/09/14 05:07:28;;;;;;;53.25;49.90;;;9.00;99.90;;;;;;6240827;23;20030;-83
2023/09/14 05:09:57;;;;;;;69.85;65.50;;;9.90;99.90;;;;;;6241786;23;20044;-82
2023/09/14 05:12:23;;;;;;;69.53;65.40;;;8.90;99.90;;;;;;6241008;23;20015;-81
2023/09/14 05:14:49;;;;;;;45.53;42.25;;;9.50;99.90;;;;;;6243543;23;20020;-83
2023/09/14 05:17:14;;;;;;;68.53;64.45;;;8.60;99.90;;;;;;6243813;23;20012;-83
2023/09/14 05:19:46;;;;;;;64.28;60.58;;;9.70;99.90;;;;;;6244248;23;20022;-83
2023/09/14 05:22:16;;;;;;;62.25;58.45;;;8.90;99.90;;;;;;6243599;23;20055;-84
2023/09/14 05:24:48;;;;;;;44.30;41.15;;;8.30;99.90;;;;;;6242935;23;20020;-83
2023/09/14 05:27:14;;;;;;;64.32;60.17;;;9.00;99.90;;;;;;6218114;23;20020;-83
2023/09/14 05:29:40;;;;;;;43.80;40.75;;;9.00;99.90;;;;;;6244223;23;20023;-84
2023/09/14 05:32:05;;;;;;;67.75;63.65;;;9.40;99.90;;;;;;6243280;23;20015;-83
2023/09/14 05:34:31;;;;;;;46.05;43.28;;;9.10;99.90;;;;;;6218795;23;20048;-83
2023/09/14 05:36:57;;;;;;;66.47;62.50;;;9.30;99.90;;;;;;6244354;23;20468;-83
2023/09/14 05:39:23;;;;;;;61.45;57.58;;;9.30;99.90;;;;;;6219405;23;20026;-83
2023/09/14 05:41:55;;;;;;;67.90;63.53;;;9.20;99.90;;;;;;6245256;23;20320;-83
2023/09/14 05:44:20;;;;;;;66.30;62.00;;;9.20;99.90;;;;;;6220510;23;20039;-84
2023/09/14 05:46:49;;;;;;;62.85;58.97;;;10.00;99.90;;;;;;6245235;23;20016;-83
2023/09/14 05:49:15;;;;;;;50.00;46.75;;;9.30;99.90;;;;;;6246205;23;20027;-83
2023/09/14 05:51:41;;;;;;;54.72;51.38;;;9.40;99.90;;;;;;6218133;23;20091;-84
2023/09/14 05:54:07;;;;;;;60.03;56.28;;;9.40;99.90;;;;;;6243987;23;20012;-84
2023/09/14 05:56:33;;;;;;;63.42;59.13;;;9.50;99.90;;;;;;6219374;23;20058;-84
2023/09/14 05:59:02;;;;;;;60.85;56.92;;;9.60;99.90;;;;;;6244405;23;20012;-82
2023/09/14 06:01:36;;;;;;;58.03;54.35;;;9.60;99.90;;;;;;6244398;23;20081;-84
2023/09/14 06:04:03;;;;;;;49.97;46.83;;;9.70;99.90;;;;;;6242348;23;20020;-83
2023/09/14 06:06:29;;;;;;;54.72;51.53;;;9.80;99.90;;;;;;6244599;23;20012;-84
2023/09/14 06:08:55;;;;;;;65.43;61.53;;;9.80;99.90;;;;;;6218153;23;20020;-84
2023/09/14 06:11:25;;;;;;;53.10;49.50;;;9.90;99.90;;;;;;6218383;23;20008;-84
2023/09/14 06:13:51;;;;;;;54.80;51.42;;;9.90;99.90;;;;;;6244434;23;20209;-84
2023/09/14 06:16:17;;;;;;;58.50;55.03;;;9.80;99.90;;;;;;6219081;23;20313;-84
2023/09/14 06:18:48;;;;;;;56.65;53.25;;;10.10;99.90;;;;;;6243649;23;20004;-84
2023/09/14 06:21:14;;;;;;;49.53;46.53;;;10.20;99.90;;;;;;6218483;23;20050;-84
2023/09/14 06:23:40;;;;;;;49.17;46.13;;;9.60;99.90;;;;;;6243745;23;20020;-83
2023/09/14 06:26:08;;;;;;;52.45;49.10;;;10.20;99.90;;;;;;6244610;23;20020;-84
2023/09/14 06:28:37;;;;;;;48.53;45.42;;;10.50;99.90;;;;;;6244169;23;20458;-83
2023/09/14 06:31:03;;;;;;;44.05;41.15;;;10.40;99.90;;;;;;6219182;23;20046;-84
2023/09/14 06:33:29;;;;;;;50.55;47.45;;;10.70;99.90;;;;;;6218301;23;20355;-84
2023/09/14 06:35:55;;;;;;;43.28;40.30;;;10.80;99.90;;;;;;6268676;22;20023;-84
2023/09/14 06:38:21;;;;;;;40.78;37.22;;;11.00;99.90;;;;;;6243590;23;20020;-84
2023/09/14 06:40:47;;;;;;;41.75;39.20;;;11.00;99.90;;;;;;6243870;23;20015;-84
2023/09/14 06:43:13;;;;;;;36.83;34.42;;;10.70;99.90;;;;;;6218267;23;20044;-84
2023/09/14 06:45:39;;;;;;;37.05;34.80;;;11.20;99.90;;;;;;6217939;23;20018;-84
2023/09/14 06:48:05;;;;;;;36.05;33.85;;;11.30;99.90;;;;;;6218396;23;20098;-84
2023/09/14 06:50:31;;;;;;;38.83;36.42;;;11.40;99.90;;;;;;6267906;22;20043;-84
2023/09/14 06:53:14;;;;;;;30.60;28.55;;;11.50;99.90;;;;;;6243799;23;20012;-83
2023/09/14 06:55:40;;;;;;;44.45;41.35;;;11.60;99.90;;;;;;6218278;23;20016;-83
2023/09/14 06:58:07;;;;;;;30.73;28.48;;;11.70;99.90;;;;;;6269255;22;20040;-84
2023/09/14 07:00:36;;;;;;;27.30;25.52;;;11.80;99.90;;;;;;6218172;23;20055;-84
2023/09/14 07:03:02;;;;;;;25.65;23.75;;;11.90;99.90;;;;;;6217830;23;20090;-83
2023/09/14 07:05:34;;;;;;;23.60;21.92;;;12.00;99.90;;;;;;6218480;23;20012;-84
2023/09/14 07:08:00;;;;;;;22.52;20.27;;;12.10;99.90;;;;;;6218703;23;20019;-84
2023/09/14 07:10:25;;;;;;;19.42;17.92;;;12.60;99.90;;;;;;6218807;23;20062;-84
2023/09/14 07:12:51;;;;;;;22.90;20.80;;;11.90;99.90;;;;;;6219610;23;20018;-84
2023/09/14 07:15:17;;;;;;;23.60;21.75;;;12.40;99.90;;;;;;6220589;23;20038;-84
2023/09/14 07:17:43;;;;;;;19.52;17.73;;;12.50;99.90;;;;;;6244199;23;20047;-84
2023/09/14 07:20:12;;;;;;;19.15;17.67;;;12.60;99.90;;;;;;6243996;23;20466;-84
2023/09/14 07:22:47;;;;;;;19.73;18.35;;;12.90;99.90;;;;;;6219852;23;20105;-83
2023/09/14 07:25:12;;;;;;;23.92;21.88;;;12.80;99.90;;;;;;6244792;23;20094;-83
2023/09/14 07:27:47;;;;;;;18.55;17.25;;;12.80;99.90;;;;;;6245393;23;20390;-84
2023/09/14 07:30:14;;;;;;;17.23;15.95;;;12.90;99.90;;;;;;6219973;23;20016;-84
2023/09/14 07:32:41;;;;;;;17.02;15.82;;;13.00;99.90;;;;;;6269452;22;20020;-84
2023/09/14 07:35:13;;;;;;;17.23;16.02;;;13.10;99.90;;;;;;6245067;23;20081;-84
2023/09/14 07:37:39;;;;;;;25.27;23.47;;;13.10;99.90;;;;;;6220039;23;20012;-84
2023/09/14 07:40:06;;;;;;;18.80;17.00;;;13.20;99.90;;;;;;6272099;22;20509;-84
2023/09/14 07:42:32;;;;;;;15.75;14.45;;;13.20;99.90;;;;;;6271855;22;20352;-84
2023/09/14 07:45:00;;;;;;;22.40;20.70;;;13.30;99.90;;;;;;6221128;23;20016;-84
2023/09/14 07:47:29;;;;;;;24.02;22.02;;;13.30;99.90;;;;;;6220367;23;20114;-84
2023/09/14 07:49:55;;;;;;;19.30;17.40;;;13.40;99.90;;;;;;6271514;22;20012;-84
2023/09/14 07:52:24;;;;;;;21.52;19.95;;;13.80;99.90;;;;;;6246823;23;20138;-84
2023/09/14 07:54:50;;;;;;;15.02;13.85;;;13.50;99.90;;;;;;6221925;23;20022;-84
2023/09/14 07:57:15;;;;;;;17.90;16.42;;;13.60;99.90;;;;;;6221751;23;20447;-84
2023/09/14 07:59:41;;;;;;;13.68;12.35;;;13.60;99.90;;;;;;6221253;23;20213;-84
2023/09/14 08:02:08;;;;;;;15.07;13.70;;;13.60;99.90;;;;;;6245891;23;20019;-84
2023/09/14 08:04:36;;;;;;;14.00;12.50;;;13.70;99.90;;;;;;6222218;23;20219;-84
2023/09/14 08:07:02;;;;;;;18.85;17.50;;;13.80;99.90;;;;;;6247527;23;20059;-84
2023/09/14 08:09:30;;;;;;;15.90;14.52;;;13.80;99.90;;;;;;6248255;23;20020;-84
2023/09/14 08:11:56;;;;;;;20.05;18.55;;;14.00;99.90;;;;;;6222765;23;20017;-84
2023/09/14 08:14:22;;;;;;;24.25;22.15;;;14.10;99.90;;;;;;6248284;23;20013;-84
2023/09/14 08:16:48;;;;;;;18.45;16.85;;;14.20;99.90;;;;;;6222759;23;20020;-84
2023/09/14 08:19:18;;;;;;;17.05;13.65;;;14.30;99.90;;;;;;6222982;23;20015;-84
2023/09/14 08:21:44;;;;;;;17.00;15.38;;;14.40;99.90;;;;;;6223286;23;20051;-84
2023/09/14 08:24:10;;;;;;;14.50;13.10;;;14.40;99.90;;;;;;6222448;23;20016;-84
2023/09/14 08:26:36;;;;;;;12.45;11.25;;;14.50;99.90;;;;;;6223462;23;20012;-84
2023/09/14 08:29:01;;;;;;;11.13;9.95;;;14.40;99.90;;;;;;6249177;23;20063;-84
2023/09/14 08:31:27;;;;;;;19.30;17.58;;;14.80;99.90;;;;;;6223219;23;20406;-84
2023/09/14 08:33:53;;;;;;;14.57;13.15;;;14.90;99.90;;;;;;6225433;23;20035;-84
2023/09/14 08:36:19;;;;;;;11.27;10.23;;;15.00;99.90;;;;;;6250486;23;20435;-84
2023/09/14 08:38:45;;;;;;;10.38;9.38;;;15.10;99.90;;;;;;6225390;23;20004;-85
2023/09/14 08:41:35;;;;;;;12.07;10.90;;;15.30;99.90;;;;;;6226830;23;20012;-84
2023/09/14 08:44:01;;;;;;;16.73;15.30;;;15.40;99.90;;;;;;6250429;23;20024;-85
2023/09/14 08:46:30;;;;;;;13.38;11.65;;;15.20;99.90;;;;;;6225699;23;20012;-85
2023/09/14 08:48:59;;;;;;;14.02;12.75;;;15.80;99.90;;;;;;6225849;23;20070;-84
2023/09/14 08:51:30;;;;;;;14.13;8.75;;;15.80;99.90;;;;;;6277749;22;20023;-84
2023/09/14 08:54:02;;;;;;;18.17;14.55;;;15.90;99.90;;;;;;6253903;22;20016;-84
2023/09/14 08:56:28;;;;;;;10.50;9.43;;;16.00;99.90;;;;;;6226579;23;20431;-84
2023/09/14 08:58:55;;;;;;;14.35;13.02;;;16.10;99.90;;;;;;6226591;23;20031;-84
2023/09/14 09:01:21;;;;;;;14.70;12.13;;;16.20;99.90;;;;;;6226458;23;20023;-84
2023/09/14 09:03:47;;;;;;;12.93;7.35;;;16.30;99.90;;;;;;6226571;23;20023;-86
2023/09/14 09:06:12;;;;;;;13.73;10.77;;;16.40;99.90;;;;;;6226769;23;20019;-84
2023/09/14 09:08:39;;;;;;;10.90;6.70;;;16.50;99.90;;;;;;6251365;23;20012;-84
2023/09/14 09:11:05;;;;;;;14.77;7.07;;;16.70;99.90;;;;;;6225930;23;20024;-84
2023/09/14 09:13:42;;;;;;;18.25;6.28;;;16.90;99.90;;;;;;6277412;22;20357;-84
2023/09/14 09:16:12;;;;;;;12.48;8.32;;;17.10;99.90;;;;;;6252299;23;20016;-84
2023/09/14 09:19:02;;;;;;;12.10;6.25;;;17.20;99.90;;;;;;6226400;23;20012;-84
2023/09/14 09:21:34;;;;;;;7.60;5.63;;;17.30;99.90;;;;;;6226428;23;20012;-84
2023/09/14 09:24:08;;;;;;;11.60;4.88;;;17.40;99.90;;;;;;6251913;23;20016;-84
2023/09/14 09:26:37;;;;;;;8.00;4.25;;;17.60;99.90;;;;;;6252366;23;20016;-84
2023/09/14 09:29:18;;;;;;;9.13;5.82;;;17.50;99.90;;;;;;6251879;23;20455;-84
2023/09/14 09:31:46;;;;;;;9.55;5.57;;;17.60;99.90;;;;;;6227009;23;20016;-84
2023/09/14 09:34:12;;;;;;;8.75;4.88;;;17.50;99.90;;;;;;6277512;22;20012;-84
2023/09/14 09:36:41;;;;;;;10.75;4.68;;;17.60;99.90;;;;;;6277568;22;20012;-85
2023/09/14 09:39:11;;;;;;;10.05;4.70;;;17.60;99.90;;;;;;6251588;23;20073;-84
2023/09/14 09:41:37;;;;;;;9.52;3.15;;;17.70;99.90;;;;;;6276390;22;20019;-84
2023/09/14 09:44:07;;;;;;;13.07;4.47;;;17.60;99.90;;;;;;6276066;22;20016;-84
2023/09/14 09:46:36;;;;;;;8.15;4.07;;;17.60;99.90;;;;;;6277314;22;20075;-85
2023/09/14 09:49:23;;;;;;;8.75;4.25;;;17.70;99.90;;;;;;6225647;23;20047;-84
2023/09/14 09:51:50;;;;;;;7.50;3.75;;;17.80;99.90;;;;;;6251444;23;20020;-85
2023/09/14 09:54:20;;;;;;;10.30;3.92;;;17.70;99.90;;;;;;6226782;23;20131;-85
2023/09/14 09:56:46;;;;;;;10.32;3.72;;;17.90;99.90;;;;;;6226426;23;20095;-84
2023/09/14 09:59:15;;;;;;;8.43;5.90;;;17.90;99.90;;;;;;6226254;23;20123;-85
2023/09/14 10:01:44;;;;;;;7.03;3.83;;;18.20;99.90;;;;;;6277787;22;20019;-84
2023/09/14 10:04:10;;;;;;;8.43;3.03;;;18.20;99.90;;;;;;6226234;23;20020;-85
2023/09/14 10:06:37;;;;;;;7.65;3.83;;;18.40;99.90;;;;;;6227300;23;20016;-84
2023/09/14 10:09:08;;;;;;;7.68;3.60;;;18.10;99.90;;;;;;6226627;23;20008;-84
2023/09/14 10:11:35;;;;;;;11.27;4.10;;;18.20;99.90;;;;;;6250979;23;20343;-84
2023/09/14 10:14:03;;;;;;;8.38;4.10;;;18.30;99.90;;;;;;6251599;23;20016;-84
2023/09/14 10:16:40;;;;;;;9.13;3.28;;;18.50;99.90;;;;;;6269421;22;20019;-84
2023/09/14 10:19:09;;;;;;;7.78;3.17;;;18.60;99.90;;;;;;6215480;23;20092;-84
2023/09/14 10:21:46;;;;;;;7.45;3.55;;;18.80;99.90;;;;;;6241122;23;20020;-85
2023/09/14 10:24:14;;;;;;;6.53;4.50;;;18.80;99.90;;;;;;6215528;23;20095;-87
2023/09/14 10:26:40;;;;;;;13.20;4.72;;;18.80;99.90;;;;;;6240444;23;20051;-85
2023/09/14 10:29:13;;;;;;;7.20;4.85;;;18.80;99.90;;;;;;6215728;23;20016;-85
2023/09/14 10:31:43;;;;;;;10.18;5.28;;;18.90;99.90;;;;;;6215287;23;20017;-84
2023/09/14 10:34:13;;;;;;;13.05;4.70;;;18.80;99.90;;;;;;6240357;23;20098;-85
2023/09/14 10:36:43;;;;;;;9.65;4.72;;;18.70;99.90;;;;;;6215506;23;20542;-84
2023/09/14 10:39:12;;;;;;;7.65;5.47;;;18.60;99.90;;;;;;6266264;22;20008;-84
2023/09/14 10:41:38;;;;;;;7.55;4.68;;;18.40;99.90;;;;;;6215080;23;20095;-86
2023/09/14 10:44:22;;;;;;;9.45;6.10;;;18.50;99.90;;;;;;6241418;23;20040;-85
2023/09/14 10:46:55;;;;;;;10.52;4.70;;;18.80;99.90;;;;;;6216051;23;20016;-85
2023/09/14 10:49:36;;;;;;;9.13;4.20;;;19.20;99.90;;;;;;6240167;23;20069;-85
2023/09/14 10:52:02;;;;;;;9.02;7.45;;;19.70;99.90;;;;;;6265671;22;20020;-85
2023/09/14 10:54:32;;;;;;;8.40;4.78;;;20.00;99.90;;;;;;6214811;23;20044;-85
2023/09/14 10:57:00;;;;;;;11.70;8.77;;;19.90;99.90;;;;;;6238862;23;20376;-85
2023/09/14 10:59:51;;;;;;;8.77;4.30;;;19.90;99.90;;;;;;6215320;23;20045;-85
2023/09/14 11:02:55;;;;;;;10.73;9.00;;;19.90;99.90;;;;;;6214723;23;20016;-85
2023/09/14 11:05:40;;;;;;;10.95;5.07;;;19.70;99.90;;;;;;6147985;23;20025;-86
2023/09/14 11:08:06;;;;;;;15.05;6.57;;;19.70;99.90;;;;;;6124076;23;20476;-85
2023/09/14 11:10:34;;;;;;;12.18;10.82;;;19.60;99.90;;;;;;6123082;23;20072;-85
2023/09/14 11:13:18;;;;;;;9.18;6.50;;;19.60;99.90;;;;;;6123492;23;20480;-85
2023/09/14 11:15:46;;;;;;;12.07;7.10;;;19.50;99.90;;;;;;6098804;23;20053;-85
2023/09/14 11:18:17;;;;;;;11.20;4.72;;;19.50;99.90;;;;;;6123572;23;20021;-85
2023/09/14 11:20:44;;;;;;;9.13;7.20;;;19.50;99.90;;;;;;6123534;23;20388;-85
2023/09/14 11:23:10;;;;;;;14.15;6.45;;;19.50;99.90;;;;;;6123314;23;20021;-85
2023/09/14 11:25:41;;;;;;;10.23;7.57;;;19.60;99.90;;;;;;6122962;23;20021;-85
2023/09/14 11:28:21;;;;;;;10.43;8.65;;;19.80;99.90;;;;;;6123794;23;20297;-85
2023/09/14 11:30:50;;;;;;;9.05;5.65;;;19.90;99.90;;;;;;6123559;23;20464;-85
2023/09/14 11:33:16;;;;;;;9.57;5.68;;;19.90;99.90;;;;;;6148013;23;20109;-85
2023/09/14 11:35:47;;;;;;;12.77;8.30;;;20.10;99.90;;;;;;6123585;23;20019;-85
2023/09/14 11:38:20;;;;;;;8.65;6.65;;;19.90;99.90;;;;;;6128414;23;20028;-84
2023/09/14 11:40:49;;;;;;;9.18;6.35;;;19.60;99.90;;;;;;6265061;22;20020;-86
2023/09/14 11:43:20;;;;;;;10.07;7.43;;;19.40;99.90;;;;;;6240485;23;20043;-85
2023/09/14 11:45:49;;;;;;;9.18;6.82;;;19.40;99.90;;;;;;6265335;22;20008;-85
2023/09/14 11:48:18;;;;;;;9.55;5.93;;;19.30;99.90;;;;;;6265387;22;20077;-86
2023/09/14 11:50:47;;;;;;;11.15;6.00;;;19.20;99.90;;;;;;6214967;23;20008;-85
2023/09/14 11:53:19;;;;;;;10.57;7.20;;;19.20;99.90;;;;;;6214271;23;20004;-85
2023/09/14 11:55:47;;;;;;;13.18;6.78;;;19.30;99.90;;;;;;6265824;22;20016;-85
2023/09/14 11:58:23;;;;;;;9.10;6.90;;;19.50;99.90;;;;;;6214561;23;20074;-86
2023/09/14 12:00:52;;;;;;;10.27;5.68;;;19.60;99.90;;;;;;6214875;23;20086;-86
2023/09/14 12:03:18;;;;;;;8.73;7.25;;;19.80;99.90;;;;;;6266050;22;20016;-85
2023/09/14 12:05:44;;;;;;;10.02;7.80;;;19.90;99.90;;;;;;6265260;22;20020;-86
2023/09/14 12:08:15;;;;;;;10.82;9.45;;;20.10;99.90;;;;;;6240659;23;20351;-85
2023/09/14 12:10:44;;;;;;;10.32;8.85;;;20.10;99.90;;;;;;6217076;23;20400;-85
2023/09/14 12:13:12;;;;;;;13.27;9.23;;;20.20;99.90;;;;;;6267546;22;20020;-85
2023/09/14 12:15:38;;;;;;;10.73;9.07;;;20.10;99.90;;;;;;6216771;23;20069;-85
2023/09/14 12:18:07;;;;;;;12.95;10.57;;;20.00;99.90;;;;;;6267365;22;20501;-85
2023/09/14 12:20:35;;;;;;;9.75;8.82;;;20.00;99.90;;;;;;6216183;23;20243;-85
2023/09/14 12:23:03;;;;;;;13.05;11.73;;;19.90;99.90;;;;;;6266877;22;20027;-85
2023/09/14 12:25:32;;;;;;;13.52;11.57;;;20.00;99.90;;;;;;6241823;23;20451;-85
2023/09/14 12:28:00;;;;;;;8.43;6.43;;;19.90;99.90;;;;;;6216582;23;20474;-86
2023/09/14 12:30:31;;;;;;;11.48;7.28;;;20.10;99.90;;;;;;6217246;23;20090;-86
2023/09/14 12:32:58;;;;;;;15.38;13.88;;;20.20;99.90;;;;;;6267856;22;20087;-85
2023/09/14 12:35:24;;;;;;;19.20;17.35;;;20.60;99.90;;;;;;6216725;23;20008;-85
2023/09/14 12:37:58;;;;;;;11.10;8.57;;;20.40;99.90;;;;;;6240917;23;20023;-86
2023/09/14 12:40:25;;;;;;;12.40;11.32;;;20.50;99.90;;;;;;6242457;23;20009;-85